Time;durP1;ratioP1;P1;durP2;ratioP2;P2;SDS_P1;SDS_P2;PMS_P1;PMS_P2;Temp;Humidity;BMP_temperature;BMP_pressure;BME280_temperature;BME280_humidity;BME280_pressure;Samples;Min_cycle;Max_cycle;Signal;HPM_P1;HPM_P2
2021/01/17 00:00:01;;;;;;;27.00;18.10;;;-0.10;82.90;;;;;;5011118;28;20544;-63
2021/01/17 00:02:27;;;;;;;26.95;16.08;;;-0.10;80.60;;;;;;5023227;28;20049;-62
2021/01/17 00:04:53;;;;;;;26.08;16.63;;;-0.20;79.10;;;;;;5021881;28;20049;-62
2021/01/17 00:07:18;;;;;;;31.42;17.52;;;-0.30;78.90;;;;;;5030123;28;20037;-62
2021/01/17 00:09:44;;;;;;;28.15;18.25;;;-0.30;79.00;;;;;;5029334;28;20072;-61
2021/01/17 00:12:09;;;;;;;25.52;16.00;;;-0.30;79.20;;;;;;5028699;28;20495;-61
2021/01/17 00:14:36;;;;;;;25.80;15.93;;;-0.30;79.00;;;;;;5029338;28;20396;-61
2021/01/17 00:17:02;;;;;;;24.90;15.57;;;-0.30;79.00;;;;;;5029785;28;20476;-61
2021/01/17 00:19:28;;;;;;;26.65;16.42;;;-0.40;78.50;;;;;;5015073;28;20068;-63
2021/01/17 00:21:54;;;;;;;26.17;16.40;;;-0.30;78.80;;;;;;5022204;28;20436;-61
2021/01/17 00:24:19;;;;;;;22.77;15.20;;;-0.40;78.00;;;;;;5032452;28;20061;-62
2021/01/17 00:26:45;;;;;;;25.88;16.75;;;-0.50;78.00;;;;;;5032933;28;20420;-63
2021/01/17 00:29:10;;;;;;;21.50;14.38;;;-0.40;78.90;;;;;;5032825;28;20037;-62
2021/01/17 00:31:37;;;;;;;24.83;15.35;;;-0.40;79.00;;;;;;5015573;28;20412;-61
2021/01/17 00:34:03;;;;;;;27.75;17.35;;;-0.40;78.90;;;;;;5006799;28;607475;-61
2021/01/17 00:36:35;;;;;;;27.98;15.98;;;-0.40;79.20;;;;;;5031073;28;20078;-62
2021/01/17 00:39:01;;;;;;;25.83;16.00;;;-0.40;79.40;;;;;;5033897;28;20037;-62
2021/01/17 00:41:31;;;;;;;24.67;15.75;;;-0.40;79.00;;;;;;5033814;28;20357;-62
2021/01/17 00:43:57;;;;;;;24.15;16.13;;;-0.40;78.90;;;;;;5031596;28;20503;-62
2021/01/17 00:46:22;;;;;;;29.27;18.60;;;-0.40;78.80;;;;;;5033706;28;20056;-61
2021/01/17 00:48:48;;;;;;;24.63;16.05;;;-0.40;79.00;;;;;;5033398;28;20049;-61
2021/01/17 00:51:13;;;;;;;23.77;14.38;;;-0.30;79.30;;;;;;5031943;28;20124;-62
2021/01/17 00:53:39;;;;;;;24.73;15.70;;;-0.40;78.40;;;;;;5032872;28;20398;-62
2021/01/17 00:56:05;;;;;;;22.30;15.07;;;-0.40;78.60;;;;;;5032540;28;20392;-61
2021/01/17 00:58:30;;;;;;;25.33;16.52;;;-0.40;79.00;;;;;;5033241;28;20029;-61
2021/01/17 01:00:56;;;;;;;25.67;14.82;;;-0.40;78.80;;;;;;5033549;28;20485;-62
2021/01/17 01:03:21;;;;;;;22.92;15.32;;;-0.50;78.80;;;;;;5032846;28;20293;-61
2021/01/17 01:05:47;;;;;;;24.05;15.65;;;-0.50;79.40;;;;;;5033151;28;20049;-62
2021/01/17 01:08:12;;;;;;;25.35;15.52;;;-0.60;78.80;;;;;;5033915;28;20554;-61
2021/01/17 01:10:38;;;;;;;23.48;15.55;;;-0.50;79.10;;;;;;5034953;28;20520;-63
2021/01/17 01:13:03;;;;;;;24.08;14.23;;;-0.50;78.30;;;;;;5036141;28;20091;-61
2021/01/17 01:15:29;;;;;;;21.98;13.95;;;-0.50;78.00;;;;;;5035681;28;20053;-62
2021/01/17 01:17:55;;;;;;;25.17;16.00;;;-0.40;78.20;;;;;;5035685;28;20440;-62
2021/01/17 01:20:20;;;;;;;29.08;17.20;;;-0.40;78.30;;;;;;5035330;28;20053;-61
2021/01/17 01:22:46;;;;;;;25.85;16.85;;;-0.40;78.80;;;;;;5035177;28;20041;-61
2021/01/17 01:25:12;;;;;;;21.55;14.13;;;-0.40;79.20;;;;;;5034541;28;20034;-61
2021/01/17 01:27:37;;;;;;;20.30;13.45;;;-0.50;78.40;;;;;;5034735;28;20029;-63
2021/01/17 01:30:05;;;;;;;22.08;14.73;;;-0.60;77.60;;;;;;5032786;28;20528;-61
2021/01/17 01:32:30;;;;;;;21.42;14.00;;;-0.50;77.50;;;;;;5033231;28;20083;-63
2021/01/17 01:34:56;;;;;;;20.63;13.52;;;-0.50;77.40;;;;;;5015054;28;20117;-63
2021/01/17 01:37:22;;;;;;;21.40;13.98;;;-0.50;77.30;;;;;;5031207;28;20122;-62
2021/01/17 01:39:48;;;;;;;21.27;13.80;;;-0.50;76.90;;;;;;5032225;28;20029;-62
2021/01/17 01:42:14;;;;;;;21.58;14.07;;;-0.50;76.90;;;;;;5031522;28;20097;-61
2021/01/17 01:44:40;;;;;;;22.50;15.18;;;-0.50;76.90;;;;;;5029807;28;20487;-62
2021/01/17 01:47:20;;;;;;;21.88;13.85;;;-0.50;77.10;;;;;;5033220;28;20512;-62
2021/01/17 01:49:46;;;;;;;20.77;13.60;;;-0.50;77.20;;;;;;5014138;28;20489;-61
2021/01/17 01:52:13;;;;;;;25.27;14.60;;;-0.50;77.10;;;;;;5019161;28;20049;-62
2021/01/17 01:54:39;;;;;;;26.23;16.10;;;-0.40;77.30;;;;;;5033856;28;20046;-64
2021/01/17 01:57:05;;;;;;;25.58;15.95;;;-0.40;77.70;;;;;;5036403;28;20033;-62
2021/01/17 01:59:32;;;;;;;26.05;16.10;;;-0.40;78.00;;;;;;5035407;28;20041;-61
2021/01/17 02:01:58;;;;;;;22.52;14.85;;;-0.50;77.90;;;;;;5037155;28;20033;-62
2021/01/17 02:04:24;;;;;;;24.48;15.18;;;-0.50;77.60;;;;;;5038890;28;20547;-62
2021/01/17 02:07:13;;;;;;;25.23;15.57;;;-0.50;78.00;;;;;;5040134;28;20075;-63
2021/01/17 02:09:40;;;;;;;23.83;14.38;;;-0.50;78.10;;;;;;5038162;28;20037;-62
2021/01/17 02:12:21;;;;;;;21.27;14.75;;;-0.50;77.80;;;;;;5036176;28;20164;-63
2021/01/17 02:15:04;;;;;;;21.08;14.00;;;-0.50;77.70;;;;;;5034710;28;20573;-62
2021/01/17 02:17:33;;;;;;;24.02;14.88;;;-0.40;77.70;;;;;;5033960;28;20037;-63
2021/01/17 02:20:04;;;;;;;22.75;14.00;;;-0.40;77.90;;;;;;5034559;28;20164;-62
2021/01/17 02:22:59;;;;;;;22.98;15.02;;;-0.40;78.10;;;;;;5034934;28;20083;-63
2021/01/17 02:25:26;;;;;;;22.90;14.45;;;-0.40;78.20;;;;;;5029549;28;20107;-63
2021/01/17 02:27:54;;;;;;;26.92;17.27;;;-0.40;78.20;;;;;;5022394;28;20035;-63
2021/01/17 02:30:21;;;;;;;26.83;15.90;;;-0.40;78.70;;;;;;5035159;28;20049;-63
2021/01/17 02:32:50;;;;;;;24.92;16.08;;;-0.40;79.30;;;;;;5033256;28;20056;-63
2021/01/17 02:35:17;;;;;;;23.63;15.80;;;-0.40;79.70;;;;;;5034712;28;20043;-63
2021/01/17 02:38:07;;;;;;;22.95;15.60;;;-0.40;79.50;;;;;;5030152;28;20030;-63
2021/01/17 02:40:55;;;;;;;25.83;15.40;;;-0.40;79.50;;;;;;5035902;28;20037;-63
2021/01/17 02:43:23;;;;;;;23.48;13.90;;;-0.50;78.90;;;;;;5036600;28;20025;-63
2021/01/17 02:45:49;;;;;;;22.48;14.95;;;-0.60;78.30;;;;;;5035647;28;20048;-62
2021/01/17 02:48:15;;;;;;;24.40;15.38;;;-0.70;78.20;;;;;;5034886;28;20036;-64
2021/01/17 02:50:41;;;;;;;23.15;15.30;;;-0.80;78.80;;;;;;5030111;28;20044;-63
2021/01/17 02:53:09;;;;;;;21.98;14.68;;;-0.80;78.70;;;;;;5021750;28;20033;-64
2021/01/17 02:55:38;;;;;;;24.48;14.77;;;-0.70;78.70;;;;;;5034231;28;20100;-64
2021/01/17 02:58:07;;;;;;;27.02;15.40;;;-0.70;78.50;;;;;;5034191;28;20105;-62
2021/01/17 03:00:35;;;;;;;23.52;14.13;;;-0.70;78.80;;;;;;5035008;28;20029;-63
2021/01/17 03:03:02;;;;;;;22.23;14.23;;;-0.70;78.70;;;;;;5033487;28;20030;-63
2021/01/17 03:05:28;;;;;;;25.60;16.08;;;-0.60;79.00;;;;;;5035201;28;20033;-63
2021/01/17 03:07:55;;;;;;;26.48;15.05;;;-0.60;79.00;;;;;;5034877;28;20033;-62
2021/01/17 03:10:22;;;;;;;21.35;14.40;;;-0.60;78.90;;;;;;5034390;28;20137;-64
2021/01/17 03:12:48;;;;;;;21.75;14.00;;;-0.70;78.00;;;;;;5034238;28;20124;-63
2021/01/17 03:15:15;;;;;;;21.00;14.00;;;-0.70;78.10;;;;;;5033960;28;20037;-63
2021/01/17 03:17:41;;;;;;;22.25;14.23;;;-0.80;78.00;;;;;;5035011;28;20033;-63
2021/01/17 03:20:07;;;;;;;19.60;12.93;;;-0.80;77.90;;;;;;5034561;28;20092;-64
2021/01/17 03:22:33;;;;;;;20.90;13.52;;;-0.80;78.10;;;;;;5036406;28;20411;-62
2021/01/17 03:24:58;;;;;;;20.02;12.68;;;-0.80;78.10;;;;;;5034917;28;20567;-62
2021/01/17 03:27:24;;;;;;;18.98;12.57;;;-0.90;78.00;;;;;;5035173;28;20041;-62
2021/01/17 03:29:50;;;;;;;19.42;13.18;;;-0.80;77.50;;;;;;5035407;28;20026;-62
2021/01/17 03:32:16;;;;;;;23.08;14.48;;;-0.80;77.50;;;;;;5034778;28;20029;-63
2021/01/17 03:34:47;;;;;;;21.27;12.70;;;-0.80;77.50;;;;;;5033106;28;20405;-64
2021/01/17 03:37:17;;;;;;;16.88;11.75;;;-0.80;77.70;;;;;;5028495;28;20034;-62
2021/01/17 03:39:42;;;;;;;17.83;11.93;;;-0.80;77.10;;;;;;5029240;28;20045;-63
2021/01/17 03:42:09;;;;;;;18.90;11.05;;;-0.90;76.20;;;;;;5034722;28;20117;-63
2021/01/17 03:44:35;;;;;;;17.55;11.60;;;-0.90;76.10;;;;;;5033369;28;20061;-63
2021/01/17 03:47:00;;;;;;;16.95;11.40;;;-0.90;75.90;;;;;;5033575;28;20039;-62
2021/01/17 03:49:26;;;;;;;15.30;10.60;;;-1.00;76.30;;;;;;5023066;28;20040;-62
2021/01/17 03:51:52;;;;;;;17.48;11.60;;;-1.00;76.00;;;;;;5022625;28;20038;-63
2021/01/17 03:54:17;;;;;;;16.10;10.18;;;-1.10;76.10;;;;;;5027504;28;20472;-63
2021/01/17 03:56:43;;;;;;;16.67;10.77;;;-1.00;76.10;;;;;;5024768;28;20037;-63
2021/01/17 03:59:08;;;;;;;18.00;11.20;;;-1.10;76.90;;;;;;5027264;28;20370;-62
2021/01/17 04:01:34;;;;;;;17.23;12.05;;;-1.10;77.50;;;;;;5027493;28;20364;-63
2021/01/17 04:03:59;;;;;;;21.05;12.35;;;-1.20;77.80;;;;;;5027645;28;20600;-62
2021/01/17 04:06:25;;;;;;;18.85;12.10;;;-1.20;78.70;;;;;;5022203;28;20050;-63
2021/01/17 04:08:51;;;;;;;19.75;11.75;;;-1.20;78.50;;;;;;5023052;28;20064;-63
2021/01/17 04:11:16;;;;;;;19.08;12.27;;;-1.20;78.50;;;;;;5036944;28;20049;-63
2021/01/17 04:13:42;;;;;;;19.77;11.98;;;-1.20;78.40;;;;;;5036188;28;20053;-61
2021/01/17 04:16:09;;;;;;;19.38;12.70;;;-1.20;78.40;;;;;;5034955;28;20436;-62
2021/01/17 04:18:35;;;;;;;18.40;11.93;;;-1.20;78.50;;;;;;5034703;28;20033;-61
2021/01/17 04:21:00;;;;;;;22.25;13.00;;;-1.10;78.90;;;;;;5034652;28;20483;-62
2021/01/17 04:23:26;;;;;;;20.35;14.23;;;-1.10;79.40;;;;;;5034645;28;20034;-62
2021/01/17 04:25:52;;;;;;;20.60;13.20;;;-1.20;80.00;;;;;;5033408;28;20488;-62
2021/01/17 04:28:17;;;;;;;20.33;12.55;;;-1.20;80.20;;;;;;5033083;28;20034;-63
2021/01/17 04:30:43;;;;;;;20.77;13.43;;;-1.20;79.70;;;;;;5032866;28;20489;-62
2021/01/17 04:33:08;;;;;;;24.25;13.93;;;-1.20;79.60;;;;;;5028005;28;20049;-61
2021/01/17 04:35:34;;;;;;;22.48;14.30;;;-1.20;80.10;;;;;;5028851;28;20075;-62
2021/01/17 04:38:00;;;;;;;20.42;13.13;;;-1.20;80.20;;;;;;5032354;28;20063;-63
2021/01/17 04:40:27;;;;;;;19.63;12.93;;;-1.20;80.30;;;;;;5033898;28;20412;-62
2021/01/17 04:43:19;;;;;;;25.45;14.20;;;-1.20;80.40;;;;;;5034138;28;20385;-61
2021/01/17 04:45:47;;;;;;;21.25;13.25;;;-1.20;80.40;;;;;;5034014;28;20565;-62
2021/01/17 04:48:15;;;;;;;19.75;13.02;;;-1.30;80.50;;;;;;5034056;28;20045;-60
2021/01/17 04:50:42;;;;;;;22.08;14.02;;;-1.30;80.40;;;;;;5029737;28;20045;-62
2021/01/17 04:53:09;;;;;;;19.55;12.88;;;-1.30;80.20;;;;;;5014106;28;20033;-62
2021/01/17 04:55:35;;;;;;;21.80;13.90;;;-1.30;80.40;;;;;;5027874;28;20033;-59
2021/01/17 04:58:33;;;;;;;19.63;12.23;;;-1.40;80.50;;;;;;5033928;28;20022;-62
2021/01/17 05:01:02;;;;;;;20.42;13.05;;;-1.40;80.20;;;;;;5017037;28;20033;-62
2021/01/17 05:04:03;;;;;;;19.83;12.82;;;-1.40;80.10;;;;;;5033096;28;20524;-60
2021/01/17 05:06:29;;;;;;;17.65;11.32;;;-1.50;79.00;;;;;;5013291;28;20037;-62
2021/01/17 05:09:05;;;;;;;19.25;11.50;;;-1.60;79.00;;;;;;5013733;28;20040;-59
2021/01/17 05:11:37;;;;;;;18.88;11.55;;;-1.60;79.20;;;;;;5032080;28;20531;-62
2021/01/17 05:14:10;;;;;;;16.45;11.23;;;-1.60;79.10;;;;;;5033075;28;20038;-60
2021/01/17 05:16:46;;;;;;;19.05;11.60;;;-1.50;78.80;;;;;;5021169;28;20049;-61
2021/01/17 05:19:16;;;;;;;16.52;10.95;;;-1.60;78.50;;;;;;5021611;28;20241;-61
2021/01/17 05:21:47;;;;;;;18.00;11.30;;;-1.50;78.70;;;;;;5013859;28;20046;-61
2021/01/17 05:24:14;;;;;;;19.73;11.88;;;-1.50;78.60;;;;;;5024929;28;20542;-63
2021/01/17 05:26:42;;;;;;;18.35;11.18;;;-1.50;78.40;;;;;;5033713;28;20029;-60
2021/01/17 05:29:08;;;;;;;17.58;12.63;;;-1.60;78.30;;;;;;5032967;28;20046;-61
2021/01/17 05:31:34;;;;;;;17.23;11.00;;;-1.50;78.30;;;;;;5032559;28;20033;-61
2021/01/17 05:34:00;;;;;;;17.90;11.23;;;-1.50;78.20;;;;;;5062735;22;20434;-63
2021/01/17 05:36:26;;;;;;;17.42;11.77;;;-1.50;78.40;;;;;;5073386;28;20043;-62
2021/01/17 05:39:00;;;;;;;18.10;11.15;;;-1.50;78.60;;;;;;5071136;28;20033;-64
2021/01/17 05:41:26;;;;;;;15.25;10.88;;;-1.60;78.50;;;;;;5073025;28;20058;-64
2021/01/17 05:43:51;;;;;;;18.10;11.55;;;-1.60;78.40;;;;;;5063763;28;20492;-62
2021/01/17 05:46:17;;;;;;;18.70;12.90;;;-1.60;78.20;;;;;;5033102;28;20396;-63
2021/01/17 05:48:42;;;;;;;16.58;11.05;;;-1.50;78.50;;;;;;5015712;28;20040;-63
2021/01/17 05:51:08;;;;;;;20.92;12.52;;;-1.50;78.50;;;;;;5044630;28;20129;-62
2021/01/17 05:53:34;;;;;;;18.33;11.55;;;-1.50;78.60;;;;;;5051698;28;20057;-63
2021/01/17 05:56:14;;;;;;;18.58;12.20;;;-1.50;78.90;;;;;;5051465;28;20079;-63
2021/01/17 05:58:44;;;;;;;18.48;12.15;;;-1.60;79.20;;;;;;5043733;28;20404;-63
2021/01/17 06:01:19;;;;;;;17.45;11.77;;;-1.60;79.60;;;;;;5031759;28;20038;-63
2021/01/17 06:03:53;;;;;;;18.65;13.10;;;-1.70;80.20;;;;;;5040628;28;20495;-63
2021/01/17 06:06:29;;;;;;;16.50;11.30;;;-1.70;80.30;;;;;;5052543;28;20084;-63
2021/01/17 06:08:56;;;;;;;18.52;12.32;;;-1.70;80.20;;;;;;5051762;28;20388;-64
2021/01/17 06:11:22;;;;;;;19.00;12.95;;;-1.70;80.10;;;;;;5052071;28;20086;-63
2021/01/17 06:13:55;;;;;;;19.02;11.95;;;-1.70;80.00;;;;;;5051719;28;20064;-64
2021/01/17 06:16:34;;;;;;;19.67;11.48;;;-1.70;79.80;;;;;;5052065;28;20040;-64
2021/01/17 06:19:02;;;;;;;18.35;11.65;;;-1.70;80.00;;;;;;5051856;28;20036;-63
2021/01/17 06:21:29;;;;;;;19.15;11.98;;;-1.80;79.90;;;;;;5052349;28;20124;-64
2021/01/17 06:23:57;;;;;;;17.60;11.25;;;-1.80;79.90;;;;;;5045276;28;20034;-64
2021/01/17 06:26:25;;;;;;;18.55;11.98;;;-1.80;80.00;;;;;;5032587;28;20044;-64
2021/01/17 06:28:50;;;;;;;19.30;11.32;;;-1.80;80.10;;;;;;5032318;28;20037;-64
2021/01/17 06:31:22;;;;;;;16.70;11.65;;;-1.90;80.20;;;;;;5032032;28;20420;-64
2021/01/17 06:33:49;;;;;;;18.67;11.60;;;-1.90;80.30;;;;;;5036862;28;20029;-64
2021/01/17 06:36:16;;;;;;;17.85;12.00;;;-1.90;80.30;;;;;;5052500;28;20144;-64
2021/01/17 06:38:43;;;;;;;17.00;11.82;;;-2.00;80.40;;;;;;5048504;28;20034;-64
2021/01/17 06:41:10;;;;;;;17.25;11.32;;;-1.90;80.30;;;;;;5032420;28;20033;-63
2021/01/17 06:43:41;;;;;;;19.50;12.48;;;-2.00;80.00;;;;;;5031341;28;20060;-63
2021/01/17 06:46:07;;;;;;;25.08;15.73;;;-2.00;80.40;;;;;;5032383;28;20037;-64
2021/01/17 06:48:33;;;;;;;24.50;14.15;;;-2.00;81.50;;;;;;5032611;28;20037;-64
2021/01/17 06:51:20;;;;;;;20.88;13.23;;;-2.00;81.10;;;;;;5042315;28;20070;-64
2021/01/17 06:53:55;;;;;;;19.00;12.30;;;-2.00;80.90;;;;;;5048138;28;20029;-64
2021/01/17 06:56:22;;;;;;;19.48;12.73;;;-2.00;80.90;;;;;;5031981;28;20024;-64
2021/01/17 06:58:51;;;;;;;21.73;13.15;;;-2.00;80.80;;;;;;5034142;28;20124;-64
2021/01/17 07:01:25;;;;;;;21.63;13.60;;;-2.00;81.00;;;;;;5051586;28;20561;-64
2021/01/17 07:04:03;;;;;;;21.88;13.70;;;-2.00;80.90;;;;;;5048901;28;20033;-64
2021/01/17 07:06:39;;;;;;;20.75;12.88;;;-2.00;80.70;;;;;;5032013;28;20069;-64
2021/01/17 07:09:12;;;;;;;18.63;12.20;;;-2.00;80.70;;;;;;5035303;28;20120;-63
2021/01/17 07:11:54;;;;;;;19.00;12.23;;;-2.00;80.50;;;;;;5051519;28;20029;-64
2021/01/17 07:14:27;;;;;;;19.10;12.63;;;-2.00;80.60;;;;;;5045891;28;20021;-64
2021/01/17 07:16:56;;;;;;;22.20;13.38;;;-2.00;80.40;;;;;;5042012;28;20446;-63
2021/01/17 07:19:30;;;;;;;22.17;13.45;;;-2.10;80.60;;;;;;5050776;28;20037;-63
2021/01/17 07:21:56;;;;;;;23.38;14.45;;;-2.10;81.00;;;;;;5051713;28;20116;-64
2021/01/17 07:24:26;;;;;;;22.25;13.25;;;-2.10;80.90;;;;;;5046594;28;20128;-64
2021/01/17 07:27:08;;;;;;;20.75;12.55;;;-2.00;80.90;;;;;;5031749;28;20034;-64
2021/01/17 07:29:36;;;;;;;21.88;14.02;;;-2.00;80.60;;;;;;5040781;28;20047;-63
2021/01/17 07:32:10;;;;;;;22.80;14.20;;;-2.00;80.20;;;;;;5039251;28;20045;-64
2021/01/17 07:34:50;;;;;;;23.05;14.02;;;-2.00;80.20;;;;;;5039814;28;20041;-63
2021/01/17 07:37:21;;;;;;;22.00;12.98;;;-2.00;80.00;;;;;;5054266;28;20082;-63
2021/01/17 07:39:53;;;;;;;20.70;12.93;;;-2.00;79.90;;;;;;5049145;28;20392;-64
2021/01/17 07:42:23;;;;;;;23.67;14.85;;;-2.00;79.70;;;;;;5035812;28;20033;-64
2021/01/17 07:44:54;;;;;;;22.17;14.00;;;-2.00;79.70;;;;;;5040843;28;20052;-63
2021/01/17 07:47:29;;;;;;;21.27;12.90;;;-2.00;79.90;;;;;;5055574;28;20143;-65
2021/01/17 07:49:56;;;;;;;20.48;13.98;;;-2.00;79.90;;;;;;5050383;28;20091;-64
2021/01/17 07:52:24;;;;;;;18.42;13.48;;;-1.90;79.40;;;;;;5055043;28;20037;-62
2021/01/17 07:54:50;;;;;;;19.38;12.88;;;-1.90;79.20;;;;;;5049472;28;20046;-64
2021/01/17 07:57:18;;;;;;;23.48;14.30;;;-1.80;79.20;;;;;;5035264;28;20078;-63
2021/01/17 07:59:44;;;;;;;20.50;13.27;;;-1.80;79.20;;;;;;5036765;28;20037;-63
2021/01/17 08:02:24;;;;;;;22.40;14.15;;;-1.80;79.20;;;;;;5036554;28;20661;-64
2021/01/17 08:04:50;;;;;;;19.50;13.55;;;-1.70;79.40;;;;;;5038473;28;20035;-62
2021/01/17 08:07:30;;;;;;;22.65;14.55;;;-1.70;79.20;;;;;;5054035;28;20486;-63
2021/01/17 08:09:56;;;;;;;23.15;13.90;;;-1.60;78.90;;;;;;5049257;28;20040;-64
2021/01/17 08:12:41;;;;;;;22.48;14.15;;;-1.60;78.90;;;;;;5035252;28;20037;-64
2021/01/17 08:15:11;;;;;;;22.58;14.55;;;-1.50;78.90;;;;;;5034975;28;20116;-65
2021/01/17 08:17:37;;;;;;;23.00;14.68;;;-1.40;78.70;;;;;;5051516;28;20114;-63
2021/01/17 08:20:05;;;;;;;23.88;14.00;;;-1.40;78.70;;;;;;5054255;28;20041;-65
2021/01/17 08:22:30;;;;;;;23.65;14.70;;;-1.30;78.70;;;;;;5054958;28;20048;-65
2021/01/17 08:25:01;;;;;;;23.90;14.52;;;-1.30;78.50;;;;;;5050140;28;20231;-63
2021/01/17 08:27:31;;;;;;;25.98;15.45;;;-1.30;78.60;;;;;;5034738;28;20038;-64
2021/01/17 08:30:03;;;;;;;22.63;13.95;;;-1.40;78.60;;;;;;5036165;28;20033;-64
2021/01/17 08:32:45;;;;;;;23.95;15.57;;;-1.50;77.80;;;;;;5054262;28;20036;-65
2021/01/17 08:35:10;;;;;;;30.50;16.60;;;-1.40;77.60;;;;;;5054362;28;20087;-66
2021/01/17 08:37:37;;;;;;;24.75;14.57;;;-1.50;78.10;;;;;;5053119;28;20414;-64
2021/01/17 08:40:04;;;;;;;37.90;25.38;;;-1.50;78.40;;;;;;5051674;28;20048;-65
2021/01/17 08:42:48;;;;;;;27.75;19.05;;;-1.60;78.80;;;;;;5038128;28;20048;-67
2021/01/17 08:45:22;;;;;;;24.77;15.40;;;-1.70;78.80;;;;;;5037550;28;20046;-67
2021/01/17 08:47:58;;;;;;;22.90;14.23;;;-1.60;78.80;;;;;;5053949;28;20052;-65
2021/01/17 08:50:35;;;;;;;21.23;14.65;;;-1.40;78.20;;;;;;5052917;28;20154;-65
2021/01/17 08:53:22;;;;;;;22.08;14.52;;;-1.30;78.20;;;;;;5053685;28;20086;-65
2021/01/17 08:55:52;;;;;;;21.52;13.35;;;-1.20;77.70;;;;;;5052297;28;20033;-66
2021/01/17 08:58:27;;;;;;;23.15;14.38;;;-1.00;77.50;;;;;;5053930;28;20051;-65
2021/01/17 09:00:52;;;;;;;22.60;15.13;;;-1.00;77.20;;;;;;5048417;28;20037;-66
2021/01/17 09:03:37;;;;;;;19.77;13.82;;;-1.00;77.20;;;;;;5034575;28;20040;-64
2021/01/17 09:06:07;;;;;;;21.40;14.85;;;-0.80;77.30;;;;;;5042005;28;20029;-65
2021/01/17 09:08:34;;;;;;;23.95;13.75;;;-0.80;77.00;;;;;;5054716;28;20633;-65
2021/01/17 09:11:01;;;;;;;19.38;13.05;;;-0.80;75.80;;;;;;5054758;28;20041;-65
2021/01/17 09:13:29;;;;;;;21.48;13.65;;;-0.80;76.20;;;;;;5054156;28;20589;-66
2021/01/17 09:16:08;;;;;;;22.60;15.27;;;-0.80;76.50;;;;;;5050941;28;20044;-64
2021/01/17 09:18:35;;;;;;;30.73;17.58;;;-0.60;76.40;;;;;;5054717;28;20044;-64
2021/01/17 09:21:00;;;;;;;24.23;16.33;;;-0.50;76.50;;;;;;5053544;28;20029;-64
2021/01/17 09:23:27;;;;;;;23.75;14.63;;;-0.40;76.40;;;;;;5053364;28;20423;-64
2021/01/17 09:25:58;;;;;;;21.38;13.95;;;-0.30;76.00;;;;;;5048509;28;20041;-64
2021/01/17 09:28:24;;;;;;;20.75;13.80;;;-0.20;75.60;;;;;;5033509;28;20061;-64
2021/01/17 09:30:55;;;;;;;25.50;16.10;;;-0.10;75.30;;;;;;5036820;28;20436;-64
2021/01/17 09:33:21;;;;;;;39.13;21.35;;;-0.10;75.00;;;;;;5051761;28;20598;-63
2021/01/17 09:35:48;;;;;;;30.00;16.83;;;0.00;75.40;;;;;;5048740;28;20060;-64
2021/01/17 09:38:22;;;;;;;26.42;15.85;;;0.00;75.40;;;;;;5033395;28;20091;-64
2021/01/17 09:40:53;;;;;;;24.00;15.20;;;0.10;75.40;;;;;;5036310;28;20060;-64
2021/01/17 09:43:19;;;;;;;25.40;15.95;;;0.20;73.50;;;;;;5051634;28;20124;-64
2021/01/17 09:45:58;;;;;;;22.50;15.60;;;0.20;73.90;;;;;;5050416;28;20064;-65
2021/01/17 09:48:24;;;;;;;19.92;14.07;;;0.10;72.90;;;;;;5033161;28;20037;-64
2021/01/17 09:50:51;;;;;;;19.95;13.98;;;0.10;71.90;;;;;;5041068;28;20044;-64
2021/01/17 09:53:18;;;;;;;23.92;15.77;;;0.00;71.30;;;;;;5052849;28;20500;-65
2021/01/17 09:55:45;;;;;;;36.58;15.05;;;-0.30;73.70;;;;;;5049347;28;20041;-64
2021/01/17 09:58:13;;;;;;;23.02;14.63;;;-0.70;76.30;;;;;;5032840;28;20022;-65
2021/01/17 10:00:40;;;;;;;23.00;15.23;;;-0.70;76.60;;;;;;5033207;28;20029;-64
2021/01/17 10:03:14;;;;;;;22.13;14.48;;;-0.80;77.50;;;;;;5032887;28;20082;-64
2021/01/17 10:05:41;;;;;;;21.03;13.67;;;-0.70;77.10;;;;;;5032078;28;20057;-64
2021/01/17 10:08:12;;;;;;;19.70;13.00;;;-0.50;76.80;;;;;;5052646;28;20279;-64
2021/01/17 10:10:40;;;;;;;21.73;14.48;;;-0.20;75.90;;;;;;5030008;28;20498;-64
2021/01/17 10:13:07;;;;;;;22.77;14.40;;;-0.10;74.80;;;;;;5033314;28;20021;-64
2021/01/17 10:15:33;;;;;;;32.45;18.23;;;-0.40;76.00;;;;;;5032698;28;20033;-64
2021/01/17 10:17:59;;;;;;;24.02;15.50;;;-0.30;76.70;;;;;;5047872;28;20076;-64
2021/01/17 10:20:30;;;;;;;22.17;14.70;;;-0.10;75.30;;;;;;5034116;28;20057;-64
2021/01/17 10:23:04;;;;;;;23.05;14.65;;;-0.10;75.90;;;;;;5031616;28;20034;-64
2021/01/17 10:25:31;;;;;;;21.10;13.18;;;0.00;74.90;;;;;;5032488;28;20029;-64
2021/01/17 10:28:02;;;;;;;21.27;13.85;;;0.10;74.00;;;;;;5032305;28;20025;-63
2021/01/17 10:30:29;;;;;;;20.38;14.20;;;-0.10;74.30;;;;;;5048238;28;20529;-65
2021/01/17 10:33:05;;;;;;;28.05;18.20;;;0.10;74.50;;;;;;5052116;28;20500;-65
2021/01/17 10:35:33;;;;;;;25.17;15.52;;;0.30;73.90;;;;;;5032881;28;20416;-65
2021/01/17 10:38:03;;;;;;;21.45;14.38;;;0.40;73.20;;;;;;5032379;28;20029;-64
2021/01/17 10:40:29;;;;;;;20.35;13.88;;;0.60;72.80;;;;;;5037395;28;20124;-64
2021/01/17 10:42:59;;;;;;;23.73;14.40;;;0.70;71.80;;;;;;5032171;28;20159;-64
2021/01/17 10:45:26;;;;;;;22.10;13.60;;;0.60;72.80;;;;;;5048213;28;20043;-64
2021/01/17 10:48:11;;;;;;;20.05;13.82;;;0.70;72.60;;;;;;5041752;28;20036;-64
2021/01/17 10:50:43;;;;;;;20.55;13.30;;;0.70;72.10;;;;;;5038804;28;20040;-64
2021/01/17 10:53:18;;;;;;;19.10;13.25;;;0.80;72.20;;;;;;5034817;28;20068;-64
2021/01/17 10:55:52;;;;;;;20.67;14.00;;;0.70;75.10;;;;;;5031302;28;20041;-63
2021/01/17 10:58:48;;;;;;;20.23;13.88;;;0.90;72.10;;;;;;5026782;28;20068;-65
2021/01/17 11:01:14;;;;;;;;;;;1.10;72.50;;;;;;5015205;28;20037;-66
2021/01/17 11:03:53;;;;;;;17.83;12.52;;;1.10;72.80;;;;;;5031103;28;19916;-64
2021/01/17 11:06:21;;;;;;;18.15;12.27;;;1.10;71.40;;;;;;5032191;28;20038;-64
2021/01/17 11:08:54;;;;;;;20.20;14.25;;;1.20;71.90;;;;;;5048816;28;20135;-64
2021/01/17 11:11:22;;;;;;;19.88;13.15;;;1.00;70.50;;;;;;5051609;28;20029;-64
2021/01/17 11:13:58;;;;;;;20.05;13.63;;;1.00;69.30;;;;;;5033095;28;20029;-65
2021/01/17 11:16:38;;;;;;;18.90;13.82;;;1.00;69.40;;;;;;5038783;28;20036;-63
2021/01/17 11:19:12;;;;;;;19.38;13.90;;;1.00;69.40;;;;;;5051521;28;20088;-64
2021/01/17 11:21:38;;;;;;;19.98;13.75;;;1.00;68.70;;;;;;5051277;28;20507;-63
2021/01/17 11:24:05;;;;;;;21.02;14.02;;;1.10;70.20;;;;;;5031448;28;20037;-64
2021/01/17 11:26:31;;;;;;;23.48;15.65;;;1.10;71.40;;;;;;5030266;28;20029;-64
2021/01/17 11:28:59;;;;;;;22.17;14.57;;;1.20;71.10;;;;;;5049156;28;20227;-64
2021/01/17 11:31:25;;;;;;;20.98;14.75;;;1.50;69.50;;;;;;5051510;28;20032;-63
2021/01/17 11:36:28;;;;;;;20.50;13.07;;;1.50;70.00;;;;;;5030271;28;20042;-61
2021/01/17 11:38:59;;;;;;;22.95;14.68;;;1.40;68.40;;;;;;5039202;28;20055;-61
2021/01/17 11:41:40;;;;;;;37.20;22.63;;;1.40;68.10;;;;;;5027218;28;20025;-62
2021/01/17 11:44:11;;;;;;;24.02;15.98;;;1.60;70.00;;;;;;5040351;28;20035;-63
2021/01/17 11:46:37;;;;;;;19.90;13.85;;;2.00;66.40;;;;;;5044912;28;20083;-61
2021/01/17 11:49:05;;;;;;;21.73;13.98;;;2.10;65.00;;;;;;5039864;28;20029;-62
2021/01/17 11:51:31;;;;;;;20.88;13.05;;;2.20;64.40;;;;;;5039533;28;20040;-63
2021/01/17 11:54:27;;;;;;;21.52;14.13;;;2.20;63.20;;;;;;5027140;28;20087;-62
2021/01/17 11:57:04;;;;;;;20.38;13.55;;;2.10;62.70;;;;;;5043738;28;20033;-60
2021/01/17 11:59:31;;;;;;;24.42;14.07;;;2.10;63.10;;;;;;5050291;28;20053;-60
2021/01/17 12:02:15;;;;;;;21.45;13.63;;;2.10;63.30;;;;;;5021181;28;20041;-61
2021/01/17 12:04:44;;;;;;;18.30;12.43;;;2.10;63.50;;;;;;5034496;28;20046;-62
2021/01/17 12:07:09;;;;;;;25.08;15.68;;;2.20;62.90;;;;;;5039755;28;20033;-62
2021/01/17 12:09:35;;;;;;;17.73;13.23;;;2.00;62.20;;;;;;5040592;28;20056;-63
2021/01/17 12:12:11;;;;;;;26.05;17.42;;;2.00;62.50;;;;;;5038743;28;20085;-61
2021/01/17 12:14:37;;;;;;;19.25;12.40;;;2.10;61.50;;;;;;5044473;28;20110;-59
2021/01/17 12:17:05;;;;;;;19.88;12.52;;;1.80;60.90;;;;;;5045145;28;20071;-62
2021/01/17 12:19:30;;;;;;;17.13;12.05;;;1.70;60.70;;;;;;5049210;28;20119;-60
2021/01/17 12:21:58;;;;;;;18.60;12.15;;;1.70;60.30;;;;;;5053797;28;20179;-62
2021/01/17 12:24:24;;;;;;;18.13;12.50;;;1.80;60.90;;;;;;5034766;28;20079;-62
2021/01/17 12:26:52;;;;;;;19.40;12.70;;;2.00;60.80;;;;;;5032917;28;20515;-62
2021/01/17 12:29:18;;;;;;;17.42;12.88;;;2.10;60.60;;;;;;5019374;28;20048;-60
2021/01/17 12:31:44;;;;;;;19.38;13.25;;;2.10;60.90;;;;;;5048407;28;20070;-59
2021/01/17 12:34:11;;;;;;;20.33;13.55;;;1.80;60.60;;;;;;5039975;28;20035;-61
2021/01/17 12:36:40;;;;;;;20.02;13.80;;;1.80;61.30;;;;;;5037866;28;20063;-62
2021/01/17 12:39:07;;;;;;;22.92;14.98;;;1.90;61.30;;;;;;5054177;28;20093;-61
2021/01/17 12:41:36;;;;;;;23.38;13.70;;;2.00;61.20;;;;;;5025439;28;20116;-62